sensor_id;sensor_type;location;lat;lon;timestamp;pressure;altitude;pressure_sealevel;temperature
66027;BMP280;56312;55.976;37.136;2023-06-04T00:04:12;57634.44;;;-135.08
66027;BMP280;56312;55.976;37.136;2023-06-04T00:09:18;57634.44;;;-135.08
66027;BMP280;56312;55.976;37.136;2023-06-04T00:14:24;57634.44;;;-135.08
66027;BMP280;56312;55.976;37.136;2023-06-04T00:19:30;57634.44;;;-135.08
66027;BMP280;56312;55.976;37.136;2023-06-04T00:24:37;57634.44;;;-135.08
66027;BMP280;56312;55.976;37.136;2023-06-04T00:29:43;57634.44;;;-135.08
66027;BMP280;56312;55.976;37.136;2023-06-04T00:34:50;57634.44;;;-135.08
66027;BMP280;56312;55.976;37.136;2023-06-04T00:39:56;57634.44;;;-135.08
66027;BMP280;56312;55.976;37.136;2023-06-04T00:45:02;57634.44;;;-135.08
66027;BMP280;56312;55.976;37.136;2023-06-04T00:50:09;57634.44;;;-135.08
66027;BMP280;56312;55.976;37.136;2023-06-04T00:55:15;57634.44;;;-135.08
66027;BMP280;56312;55.976;37.136;2023-06-04T01:00:23;57634.44;;;-135.08
66027;BMP280;56312;55.976;37.136;2023-06-04T01:05:32;57634.44;;;-135.08
66027;BMP280;56312;55.976;37.136;2023-06-04T01:10:51;57634.44;;;-135.08
66027;BMP280;56312;55.976;37.136;2023-06-04T01:15:57;57634.44;;;-135.08
66027;BMP280;56312;55.976;37.136;2023-06-04T01:21:06;57634.44;;;-135.08
66027;BMP280;56312;55.976;37.136;2023-06-04T01:26:13;57634.44;;;-135.08
66027;BMP280;56312;55.976;37.136;2023-06-04T01:31:19;57634.44;;;-135.08
66027;BMP280;56312;55.976;37.136;2023-06-04T01:36:28;57634.44;;;-135.08
66027;BMP280;56312;55.976;37.136;2023-06-04T01:41:34;57634.44;;;-135.08
66027;BMP280;56312;55.976;37.136;2023-06-04T01:46:40;57634.44;;;-135.08
66027;BMP280;56312;55.976;37.136;2023-06-04T01:51:46;57634.44;;;-135.08
66027;BMP280;56312;55.976;37.136;2023-06-04T01:56:52;57634.44;;;-135.08
66027;BMP280;56312;55.976;37.136;2023-06-04T02:01:58;57634.44;;;-135.08
66027;BMP280;56312;55.976;37.136;2023-06-04T02:07:04;57634.44;;;-135.08
66027;BMP280;56312;55.976;37.136;2023-06-04T02:12:12;57634.44;;;-135.08
66027;BMP280;56312;55.976;37.136;2023-06-04T02:17:18;57634.44;;;-135.08
66027;BMP280;56312;55.976;37.136;2023-06-04T02:22:25;57634.44;;;-135.08
66027;BMP280;56312;55.976;37.136;2023-06-04T02:27:31;57634.44;;;-135.08
66027;BMP280;56312;55.976;37.136;2023-06-04T02:32:37;57634.44;;;-135.08
66027;BMP280;56312;55.976;37.136;2023-06-04T02:37:44;57634.44;;;-135.08
66027;BMP280;56312;55.976;37.136;2023-06-04T02:42:52;57634.44;;;-135.08
66027;BMP280;56312;55.976;37.136;2023-06-04T02:47:58;57634.44;;;-135.08
66027;BMP280;56312;55.976;37.136;2023-06-04T02:53:04;57634.44;;;-135.08
66027;BMP280;56312;55.976;37.136;2023-06-04T02:58:10;57634.44;;;-135.08
66027;BMP280;56312;55.976;37.136;2023-06-04T03:03:16;57634.44;;;-135.08
66027;BMP280;56312;55.976;37.136;2023-06-04T03:08:22;57634.44;;;-135.08
66027;BMP280;56312;55.976;37.136;2023-06-04T03:13:28;57634.44;;;-135.08
66027;BMP280;56312;55.976;37.136;2023-06-04T03:18:34;57634.44;;;-135.08
66027;BMP280;56312;55.976;37.136;2023-06-04T03:23:42;57634.44;;;-135.08
66027;BMP280;56312;55.976;37.136;2023-06-04T03:28:48;57634.44;;;-135.08
66027;BMP280;56312;55.976;37.136;2023-06-04T03:33:54;57634.44;;;-135.08
66027;BMP280;56312;55.976;37.136;2023-06-04T03:39:00;57634.44;;;-135.08
66027;BMP280;56312;55.976;37.136;2023-06-04T03:44:06;57634.44;;;-135.08
66027;BMP280;56312;55.976;37.136;2023-06-04T03:49:13;57634.44;;;-135.08
66027;BMP280;56312;55.976;37.136;2023-06-04T03:54:19;57634.44;;;-135.08
66027;BMP280;56312;55.976;37.136;2023-06-04T03:59:25;57634.44;;;-135.08
66027;BMP280;56312;55.976;37.136;2023-06-04T04:04:31;57634.44;;;-135.08
66027;BMP280;56312;55.976;37.136;2023-06-04T04:09:38;57634.44;;;-135.08
66027;BMP280;56312;55.976;37.136;2023-06-04T04:14:44;57634.44;;;-135.08
66027;BMP280;56312;55.976;37.136;2023-06-04T04:19:52;57634.44;;;-135.08
66027;BMP280;56312;55.976;37.136;2023-06-04T04:24:58;57634.44;;;-135.08
66027;BMP280;56312;55.976;37.136;2023-06-04T04:30:05;57634.44;;;-135.08
66027;BMP280;56312;55.976;37.136;2023-06-04T04:35:11;57634.44;;;-135.08
66027;BMP280;56312;55.976;37.136;2023-06-04T04:40:17;57634.44;;;-135.08
66027;BMP280;56312;55.976;37.136;2023-06-04T04:45:23;57634.44;;;-135.08
66027;BMP280;56312;55.976;37.136;2023-06-04T04:50:29;57634.44;;;-135.08
66027;BMP280;56312;55.976;37.136;2023-06-04T04:55:37;57634.44;;;-135.08
66027;BMP280;56312;55.976;37.136;2023-06-04T05:00:43;57634.44;;;-135.08
66027;BMP280;56312;55.976;37.136;2023-06-04T05:05:49;57634.44;;;-135.08
66027;BMP280;56312;55.976;37.136;2023-06-04T05:10:55;57634.44;;;-135.08
66027;BMP280;56312;55.976;37.136;2023-06-04T05:16:01;57634.44;;;-135.08
66027;BMP280;56312;55.976;37.136;2023-06-04T05:21:12;57634.44;;;-135.08
66027;BMP280;56312;55.976;37.136;2023-06-04T05:26:18;57634.44;;;-135.08
66027;BMP280;56312;55.976;37.136;2023-06-04T05:31:28;57634.44;;;-135.08
66027;BMP280;56312;55.976;37.136;2023-06-04T05:36:34;57634.44;;;-135.08
66027;BMP280;56312;55.976;37.136;2023-06-04T05:41:41;57634.44;;;-135.08
66027;BMP280;56312;55.976;37.136;2023-06-04T05:46:47;57634.44;;;-135.08
66027;BMP280;56312;55.976;37.136;2023-06-04T05:51:54;57634.44;;;-135.08
66027;BMP280;56312;55.976;37.136;2023-06-04T05:57:00;57634.44;;;-135.08
66027;BMP280;56312;55.976;37.136;2023-06-04T06:02:06;57634.44;;;-135.08
66027;BMP280;56312;55.976;37.136;2023-06-04T06:07:13;57634.44;;;-135.08
66027;BMP280;56312;55.976;37.136;2023-06-04T06:12:19;57634.44;;;-135.08
66027;BMP280;56312;55.976;37.136;2023-06-04T06:17:25;57634.44;;;-135.08
66027;BMP280;56312;55.976;37.136;2023-06-04T06:22:31;57634.44;;;-135.08
66027;BMP280;56312;55.976;37.136;2023-06-04T06:27:38;57634.44;;;-135.08
66027;BMP280;56312;55.976;37.136;2023-06-04T06:32:44;57634.44;;;-135.08
66027;BMP280;56312;55.976;37.136;2023-06-04T06:37:51;57634.44;;;-135.08
66027;BMP280;56312;55.976;37.136;2023-06-04T06:42:57;57634.44;;;-135.08
66027;BMP280;56312;55.976;37.136;2023-06-04T06:48:03;57634.44;;;-135.08
66027;BMP280;56312;55.976;37.136;2023-06-04T06:53:09;57634.44;;;-135.08
66027;BMP280;56312;55.976;37.136;2023-06-04T06:58:15;57634.44;;;-135.08
66027;BMP280;56312;55.976;37.136;2023-06-04T07:03:22;57634.44;;;-135.08
66027;BMP280;56312;55.976;37.136;2023-06-04T07:08:28;57634.44;;;-135.08
66027;BMP280;56312;55.976;37.136;2023-06-04T07:13:34;57634.44;;;-135.08
66027;BMP280;56312;55.976;37.136;2023-06-04T07:18:40;57634.44;;;-135.08
66027;BMP280;56312;55.976;37.136;2023-06-04T07:23:46;57634.44;;;-135.08
66027;BMP280;56312;55.976;37.136;2023-06-04T07:28:55;57634.44;;;-135.08
66027;BMP280;56312;55.976;37.136;2023-06-04T07:34:01;57634.44;;;-135.08
66027;BMP280;56312;55.976;37.136;2023-06-04T07:39:07;57634.44;;;-135.08
66027;BMP280;56312;55.976;37.136;2023-06-04T07:44:13;57634.44;;;-135.08
66027;BMP280;56312;55.976;37.136;2023-06-04T07:49:19;57634.44;;;-135.08
66027;BMP280;56312;55.976;37.136;2023-06-04T07:54:25;57634.44;;;-135.08
66027;BMP280;56312;55.976;37.136;2023-06-04T07:59:32;57634.44;;;-135.08
66027;BMP280;56312;55.976;37.136;2023-06-04T08:04:40;57634.44;;;-135.08
66027;BMP280;56312;55.976;37.136;2023-06-04T08:09:46;57634.44;;;-135.08
66027;BMP280;56312;55.976;37.136;2023-06-04T08:14:52;57634.44;;;-135.08
66027;BMP280;56312;55.976;37.136;2023-06-04T08:20:02;57634.44;;;-135.08
66027;BMP280;56312;55.976;37.136;2023-06-04T08:25:12;57634.44;;;-135.08
66027;BMP280;56312;55.976;37.136;2023-06-04T08:30:19;57634.44;;;-135.08
66027;BMP280;56312;55.976;37.136;2023-06-04T08:35:25;57634.44;;;-135.08
66027;BMP280;56312;55.976;37.136;2023-06-04T08:40:31;57634.44;;;-135.08
66027;BMP280;56312;55.976;37.136;2023-06-04T08:45:38;57634.44;;;-135.08
66027;BMP280;56312;55.976;37.136;2023-06-04T08:50:45;57634.44;;;-135.08
66027;BMP280;56312;55.976;37.136;2023-06-04T08:55:53;57634.44;;;-135.08
66027;BMP280;56312;55.976;37.136;2023-06-04T09:01:00;57634.44;;;-135.08
66027;BMP280;56312;55.976;37.136;2023-06-04T09:06:07;57634.44;;;-135.08
66027;BMP280;56312;55.976;37.136;2023-06-04T09:11:13;57634.44;;;-135.08
66027;BMP280;56312;55.976;37.136;2023-06-04T09:16:19;57634.44;;;-135.08
66027;BMP280;56312;55.976;37.136;2023-06-04T09:21:26;57634.44;;;-135.08
66027;BMP280;56312;55.976;37.136;2023-06-04T09:26:33;57634.44;;;-135.08
66027;BMP280;56312;55.976;37.136;2023-06-04T09:31:39;57634.44;;;-135.08
66027;BMP280;56312;55.976;37.136;2023-06-04T09:36:45;57634.44;;;-135.08
66027;BMP280;56312;55.976;37.136;2023-06-04T09:41:59;57634.44;;;-135.08
66027;BMP280;56312;55.976;37.136;2023-06-04T09:47:06;57634.44;;;-135.08
66027;BMP280;56312;55.976;37.136;2023-06-04T09:52:12;57634.44;;;-135.08
66027;BMP280;56312;55.976;37.136;2023-06-04T09:57:18;57634.44;;;-135.08
66027;BMP280;56312;55.976;37.136;2023-06-04T10:02:24;57634.44;;;-135.08
66027;BMP280;56312;55.976;37.136;2023-06-04T10:07:35;57634.44;;;-135.08
66027;BMP280;56312;55.976;37.136;2023-06-04T10:12:42;57634.44;;;-135.08
66027;BMP280;56312;55.976;37.136;2023-06-04T10:17:48;57634.44;;;-135.08
66027;BMP280;56312;55.976;37.136;2023-06-04T10:22:55;57634.44;;;-135.08
66027;BMP280;56312;55.976;37.136;2023-06-04T10:28:02;57634.44;;;-135.08
66027;BMP280;56312;55.976;37.136;2023-06-04T10:33:08;57634.44;;;-135.08
66027;BMP280;56312;55.976;37.136;2023-06-04T10:38:14;57634.44;;;-135.08
66027;BMP280;56312;55.976;37.136;2023-06-04T10:43:22;57634.44;;;-135.08
66027;BMP280;56312;55.976;37.136;2023-06-04T10:48:35;57634.44;;;-135.08
66027;BMP280;56312;55.976;37.136;2023-06-04T10:53:50;57634.44;;;-135.08
66027;BMP280;56312;55.976;37.136;2023-06-04T10:58:56;57634.44;;;-135.08
66027;BMP280;56312;55.976;37.136;2023-06-04T11:04:02;57634.44;;;-135.08
66027;BMP280;56312;55.976;37.136;2023-06-04T11:09:08;57634.44;;;-135.08
66027;BMP280;56312;55.976;37.136;2023-06-04T11:14:20;57634.44;;;-135.08
66027;BMP280;56312;55.976;37.136;2023-06-04T11:19:34;57634.44;;;-135.08
66027;BMP280;56312;55.976;37.136;2023-06-04T11:24:40;57634.44;;;-135.08
66027;BMP280;56312;55.976;37.136;2023-06-04T11:29:49;57634.44;;;-135.08
66027;BMP280;56312;55.976;37.136;2023-06-04T11:35:01;57634.44;;;-135.08
66027;BMP280;56312;55.976;37.136;2023-06-04T11:40:26;57634.44;;;-135.08
66027;BMP280;56312;55.976;37.136;2023-06-04T11:45:32;57634.44;;;-135.08
66027;BMP280;56312;55.976;37.136;2023-06-04T11:50:38;57634.44;;;-135.08
66027;BMP280;56312;55.976;37.136;2023-06-04T11:55:44;57634.44;;;-135.08
66027;BMP280;56312;55.976;37.136;2023-06-04T12:00:51;57634.44;;;-135.08
66027;BMP280;56312;55.976;37.136;2023-06-04T12:05:57;57634.44;;;-135.08
66027;BMP280;56312;55.976;37.136;2023-06-04T12:11:03;57634.44;;;-135.08
66027;BMP280;56312;55.976;37.136;2023-06-04T12:16:13;57634.44;;;-135.08
66027;BMP280;56312;55.976;37.136;2023-06-04T12:21:23;57634.44;;;-135.08
66027;BMP280;56312;55.976;37.136;2023-06-04T12:26:32;57634.44;;;-135.08
66027;BMP280;56312;55.976;37.136;2023-06-04T12:31:43;57634.44;;;-135.08
66027;BMP280;56312;55.976;37.136;2023-06-04T12:36:51;57634.44;;;-135.08
66027;BMP280;56312;55.976;37.136;2023-06-04T12:41:57;57634.44;;;-135.08
66027;BMP280;56312;55.976;37.136;2023-06-04T12:47:03;57634.44;;;-135.08
66027;BMP280;56312;55.976;37.136;2023-06-04T12:52:10;57634.44;;;-135.08
66027;BMP280;56312;55.976;37.136;2023-06-04T12:57:16;57634.44;;;-135.08
66027;BMP280;56312;55.976;37.136;2023-06-04T13:02:22;57634.44;;;-135.08
66027;BMP280;56312;55.976;37.136;2023-06-04T13:07:28;57634.44;;;-135.08
66027;BMP280;56312;55.976;37.136;2023-06-04T13:12:34;57634.44;;;-135.08
66027;BMP280;56312;55.976;37.136;2023-06-04T13:17:40;57634.44;;;-135.08
66027;BMP280;56312;55.976;37.136;2023-06-04T13:22:46;57634.44;;;-135.08
66027;BMP280;56312;55.976;37.136;2023-06-04T13:27:52;57634.44;;;-135.08
66027;BMP280;56312;55.976;37.136;2023-06-04T13:32:58;57634.44;;;-135.08
66027;BMP280;56312;55.976;37.136;2023-06-04T13:38:05;57634.44;;;-135.08
66027;BMP280;56312;55.976;37.136;2023-06-04T13:43:12;57634.44;;;-135.08
66027;BMP280;56312;55.976;37.136;2023-06-04T13:48:18;57634.44;;;-135.08
66027;BMP280;56312;55.976;37.136;2023-06-04T13:53:24;57634.44;;;-135.08
66027;BMP280;56312;55.976;37.136;2023-06-04T13:58:30;57634.44;;;-135.08
66027;BMP280;56312;55.976;37.136;2023-06-04T14:03:36;57634.44;;;-135.08
66027;BMP280;56312;55.976;37.136;2023-06-04T14:08:42;57634.44;;;-135.08
66027;BMP280;56312;55.976;37.136;2023-06-04T14:13:48;57634.44;;;-135.08
66027;BMP280;56312;55.976;37.136;2023-06-04T14:18:54;57634.44;;;-135.08
66027;BMP280;56312;55.976;37.136;2023-06-04T14:24:00;57634.44;;;-135.08
66027;BMP280;56312;55.976;37.136;2023-06-04T14:29:06;57634.44;;;-135.08
66027;BMP280;56312;55.976;37.136;2023-06-04T14:34:12;57634.44;;;-135.08
66027;BMP280;56312;55.976;37.136;2023-06-04T14:39:19;57634.44;;;-135.08
66027;BMP280;56312;55.976;37.136;2023-06-04T14:44:25;57634.44;;;-135.08
66027;BMP280;56312;55.976;37.136;2023-06-04T14:49:31;57634.44;;;-135.08
66027;BMP280;56312;55.976;37.136;2023-06-04T14:54:37;57634.44;;;-135.08
66027;BMP280;56312;55.976;37.136;2023-06-04T14:59:43;57634.44;;;-135.08
66027;BMP280;56312;55.976;37.136;2023-06-04T15:04:49;57634.44;;;-135.08
66027;BMP280;56312;55.976;37.136;2023-06-04T15:09:55;57634.44;;;-135.08
66027;BMP280;56312;55.976;37.136;2023-06-04T15:15:02;57634.44;;;-135.08
66027;BMP280;56312;55.976;37.136;2023-06-04T15:20:08;57634.44;;;-135.08
66027;BMP280;56312;55.976;37.136;2023-06-04T15:25:14;57634.44;;;-135.08
66027;BMP280;56312;55.976;37.136;2023-06-04T15:30:20;57634.44;;;-135.08
66027;BMP280;56312;55.976;37.136;2023-06-04T15:35:26;57634.44;;;-135.08
66027;BMP280;56312;55.976;37.136;2023-06-04T15:40:32;57634.44;;;-135.08
66027;BMP280;56312;55.976;37.136;2023-06-04T15:45:38;57634.44;;;-135.08
66027;BMP280;56312;55.976;37.136;2023-06-04T15:50:44;57634.44;;;-135.08
66027;BMP280;56312;55.976;37.136;2023-06-04T15:55:50;57634.44;;;-135.08
66027;BMP280;56312;55.976;37.136;2023-06-04T16:00:56;57634.44;;;-135.08
66027;BMP280;56312;55.976;37.136;2023-06-04T16:06:02;57634.44;;;-135.08
66027;BMP280;56312;55.976;37.136;2023-06-04T16:11:09;57634.44;;;-135.08
66027;BMP280;56312;55.976;37.136;2023-06-04T16:16:15;57634.44;;;-135.08
66027;BMP280;56312;55.976;37.136;2023-06-04T16:21:21;57634.44;;;-135.08
66027;BMP280;56312;55.976;37.136;2023-06-04T16:26:27;57634.44;;;-135.08
66027;BMP280;56312;55.976;37.136;2023-06-04T16:31:33;57634.44;;;-135.08
66027;BMP280;56312;55.976;37.136;2023-06-04T16:36:39;57634.44;;;-135.08
66027;BMP280;56312;55.976;37.136;2023-06-04T16:41:45;57634.44;;;-135.08
66027;BMP280;56312;55.976;37.136;2023-06-04T16:46:51;57634.44;;;-135.08
66027;BMP280;56312;55.976;37.136;2023-06-04T16:51:57;57634.44;;;-135.08
66027;BMP280;56312;55.976;37.136;2023-06-04T16:57:04;57634.44;;;-135.08
66027;BMP280;56312;55.976;37.136;2023-06-04T17:02:10;57634.44;;;-135.08
66027;BMP280;56312;55.976;37.136;2023-06-04T17:07:16;57634.44;;;-135.08
66027;BMP280;56312;55.976;37.136;2023-06-04T17:12:22;57634.44;;;-135.08
66027;BMP280;56312;55.976;37.136;2023-06-04T17:17:28;57634.44;;;-135.08
66027;BMP280;56312;55.976;37.136;2023-06-04T17:22:34;57634.44;;;-135.08
66027;BMP280;56312;55.976;37.136;2023-06-04T17:27:40;57634.44;;;-135.08
66027;BMP280;56312;55.976;37.136;2023-06-04T17:32:46;57634.44;;;-135.08
66027;BMP280;56312;55.976;37.136;2023-06-04T17:37:52;57634.44;;;-135.08
66027;BMP280;56312;55.976;37.136;2023-06-04T17:42:58;57634.44;;;-135.08
66027;BMP280;56312;55.976;37.136;2023-06-04T17:48:04;57634.44;;;-135.08
66027;BMP280;56312;55.976;37.136;2023-06-04T17:53:11;57634.44;;;-135.08
66027;BMP280;56312;55.976;37.136;2023-06-04T17:58:17;57634.44;;;-135.08
66027;BMP280;56312;55.976;37.136;2023-06-04T18:03:23;57634.44;;;-135.08
66027;BMP280;56312;55.976;37.136;2023-06-04T18:08:29;57634.44;;;-135.08
66027;BMP280;56312;55.976;37.136;2023-06-04T18:13:36;57634.44;;;-135.08
66027;BMP280;56312;55.976;37.136;2023-06-04T18:18:42;57634.44;;;-135.08
66027;BMP280;56312;55.976;37.136;2023-06-04T18:23:49;57634.44;;;-135.08
66027;BMP280;56312;55.976;37.136;2023-06-04T18:28:57;57634.44;;;-135.08
66027;BMP280;56312;55.976;37.136;2023-06-04T18:34:03;57634.44;;;-135.08
66027;BMP280;56312;55.976;37.136;2023-06-04T18:39:09;57634.44;;;-135.08
66027;BMP280;56312;55.976;37.136;2023-06-04T18:44:16;57634.44;;;-135.08
66027;BMP280;56312;55.976;37.136;2023-06-04T18:49:22;57634.44;;;-135.08
66027;BMP280;56312;55.976;37.136;2023-06-04T18:54:28;57634.44;;;-135.08
66027;BMP280;56312;55.976;37.136;2023-06-04T18:59:34;57634.44;;;-135.08
66027;BMP280;56312;55.976;37.136;2023-06-04T19:04:40;57634.44;;;-135.08
66027;BMP280;56312;55.976;37.136;2023-06-04T19:09:46;57634.44;;;-135.08
66027;BMP280;56312;55.976;37.136;2023-06-04T19:14:53;57634.44;;;-135.08
66027;BMP280;56312;55.976;37.136;2023-06-04T19:19:59;57634.44;;;-135.08
66027;BMP280;56312;55.976;37.136;2023-06-04T19:25:05;57634.44;;;-135.08
66027;BMP280;56312;55.976;37.136;2023-06-04T19:30:12;57634.44;;;-135.08
66027;BMP280;56312;55.976;37.136;2023-06-04T19:35:18;57634.44;;;-135.08
66027;BMP280;56312;55.976;37.136;2023-06-04T19:40:24;57634.44;;;-135.08
66027;BMP280;56312;55.976;37.136;2023-06-04T19:45:30;57634.44;;;-135.08
66027;BMP280;56312;55.976;37.136;2023-06-04T19:50:37;57634.44;;;-135.08
66027;BMP280;56312;55.976;37.136;2023-06-04T19:55:43;57634.44;;;-135.08
66027;BMP280;56312;55.976;37.136;2023-06-04T20:00:49;99123.69;;;15.20
66027;BMP280;56312;55.976;37.136;2023-06-04T20:05:55;99121.09;;;15.20
66027;BMP280;56312;55.976;37.136;2023-06-04T20:11:02;99120.31;;;15.18
66027;BMP280;56312;55.976;37.136;2023-06-04T20:16:09;99113.50;;;15.17
66027;BMP280;56312;55.976;37.136;2023-06-04T20:21:15;99116.06;;;15.17
66027;BMP280;56312;55.976;37.136;2023-06-04T20:26:22;99115.31;;;15.15
66027;BMP280;56312;55.976;37.136;2023-06-04T20:31:28;99116.13;;;15.15
66027;BMP280;56312;55.976;37.136;2023-06-04T20:36:35;99115.31;;;15.15
66027;BMP280;56312;55.976;37.136;2023-06-04T20:41:43;99111.88;;;15.14
66027;BMP280;56312;55.976;37.136;2023-06-04T20:46:49;99111.06;;;15.14
66027;BMP280;56312;55.976;37.136;2023-06-04T20:51:55;99106.81;;;15.13
66027;BMP280;56312;55.976;37.136;2023-06-04T20:57:05;99109.28;;;15.14
66027;BMP280;56312;55.976;37.136;2023-06-04T21:02:11;99113.63;;;15.14
66027;BMP280;56312;55.976;37.136;2023-06-04T21:07:18;99117.16;;;15.13
66027;BMP280;56312;55.976;37.136;2023-06-04T21:12:24;99111.97;;;15.13
66027;BMP280;56312;55.976;37.136;2023-06-04T21:17:30;99107.63;;;15.13
66027;BMP280;56312;55.976;37.136;2023-06-04T21:22:37;99107.72;;;15.12
66027;BMP280;56312;55.976;37.136;2023-06-04T21:27:43;99109.38;;;15.13
66027;BMP280;56312;55.976;37.136;2023-06-04T21:32:49;99113.72;;;15.12
66027;BMP280;56312;55.976;37.136;2023-06-04T21:37:56;99113.72;;;15.12
66027;BMP280;56312;55.976;37.136;2023-06-04T21:43:02;99105.13;;;15.12
66027;BMP280;56312;55.976;37.136;2023-06-04T21:48:08;99117.16;;;15.13
66027;BMP280;56312;55.976;37.136;2023-06-04T21:53:15;99113.78;;;15.11
66027;BMP280;56312;55.976;37.136;2023-06-04T21:58:22;99117.22;;;15.11
66027;BMP280;56312;55.976;37.136;2023-06-04T22:03:28;99121.56;;;15.11
66027;BMP280;56312;55.976;37.136;2023-06-04T22:08:35;99124.13;;;15.11
66027;BMP280;56312;55.976;37.136;2023-06-04T22:13:41;99118.97;;;15.11
66027;BMP280;56312;55.976;37.136;2023-06-04T22:18:47;99118.13;;;15.10
66027;BMP280;56312;55.976;37.136;2023-06-04T22:23:54;99112.97;;;15.10
66027;BMP280;56312;55.976;37.136;2023-06-04T22:29:00;99117.31;;;15.10
66027;BMP280;56312;55.976;37.136;2023-06-04T22:34:06;99110.47;;;15.09
66027;BMP280;56312;55.976;37.136;2023-06-04T22:39:13;99102.69;;;15.09
66027;BMP280;56312;55.976;37.136;2023-06-04T22:44:19;99105.28;;;15.09
66027;BMP280;56312;55.976;37.136;2023-06-04T22:49:26;99106.13;;;15.09
66027;BMP280;56312;55.976;37.136;2023-06-04T22:54:32;99111.19;;;15.11
66027;BMP280;56312;55.976;37.136;2023-06-04T22:59:38;99110.47;;;15.09
66027;BMP280;56312;55.976;37.136;2023-06-04T23:04:46;99110.47;;;15.09
66027;BMP280;56312;55.976;37.136;2023-06-04T23:09:52;99112.13;;;15.10
66027;BMP280;56312;55.976;37.136;2023-06-04T23:14:59;99113.06;;;15.09
66027;BMP280;56312;55.976;37.136;2023-06-04T23:20:08;99115.69;;;15.07
66027;BMP280;56312;55.976;37.136;2023-06-04T23:25:15;99110.53;;;15.07
66027;BMP280;56312;55.976;37.136;2023-06-04T23:30:21;99113.97;;;15.08
66027;BMP280;56312;55.976;37.136;2023-06-04T23:35:28;99118.28;;;15.07
66027;BMP280;56312;55.976;37.136;2023-06-04T23:40:34;99119.16;;;15.08
66027;BMP280;56312;55.976;37.136;2023-06-04T23:45:41;99111.38;;;15.08
66027;BMP280;56312;55.976;37.136;2023-06-04T23:50:47;99113.09;;;15.07
66027;BMP280;56312;55.976;37.136;2023-06-04T23:55:53;99109.69;;;15.07
